Time;durP1;ratioP1;P1;durP2;ratioP2;P2;SDS_P1;SDS_P2;PMS_P1;PMS_P2;Temp;Humidity;BMP_temperature;BMP_pressure;BME280_temperature;BME280_humidity;BME280_pressure;Samples;Min_cycle;Max_cycle;Signal;HPM_P1;HPM_P2
2021/04/20 00:02:41;;;;;;;20.00;10.10;;;3.90;99.90;;;;;;4445728;28;659120;-68
2021/04/20 00:05:28;;;;;;;18.73;9.97;;;3.80;99.90;;;;;;4426506;28;657479;-68
2021/04/20 00:08:15;;;;;;;19.87;10.63;;;3.80;99.90;;;;;;4450912;28;657101;-68
2021/04/20 00:11:02;;;;;;;19.53;10.53;;;3.80;99.90;;;;;;4430399;28;657418;-69
2021/04/20 00:13:50;;;;;;;20.13;9.43;;;3.70;99.90;;;;;;4449968;28;658142;-68
2021/04/20 00:16:38;;;;;;;21.90;10.23;;;3.60;99.90;;;;;;4447154;28;656560;-68
2021/04/20 00:19:25;;;;;;;16.80;9.70;;;3.60;99.90;;;;;;4423716;28;658519;-68
2021/04/20 00:22:12;;;;;;;16.35;9.00;;;3.60;99.90;;;;;;4427660;28;656537;-69
2021/04/20 00:25:00;;;;;;;19.00;10.37;;;3.60;99.90;;;;;;4450902;28;657937;-67
2021/04/20 00:27:47;;;;;;;19.80;10.00;;;3.50;99.90;;;;;;4447512;28;657450;-68
2021/04/20 00:30:35;;;;;;;23.00;11.13;;;3.50;99.90;;;;;;4451493;28;658592;-67
2021/04/20 00:33:23;;;;;;;20.80;10.33;;;3.50;99.90;;;;;;4450218;28;657251;-68
2021/04/20 00:36:10;;;;;;;18.42;10.27;;;3.50;99.90;;;;;;4419985;28;658585;-67
2021/04/20 00:38:58;;;;;;;21.97;10.27;;;3.50;99.90;;;;;;4436243;28;657679;-69
2021/04/20 00:41:45;;;;;;;21.60;10.50;;;3.60;99.90;;;;;;4445926;28;659164;-68
2021/04/20 00:44:32;;;;;;;24.47;11.00;;;3.60;99.90;;;;;;4439247;28;657436;-69
2021/04/20 00:47:20;;;;;;;20.27;10.90;;;3.60;99.90;;;;;;4445829;28;659089;-68
2021/04/20 00:50:10;;;;;;;22.13;10.63;;;3.70;99.90;;;;;;4444054;28;657483;-68
2021/04/20 00:52:57;;;;;;;22.73;11.27;;;3.80;99.90;;;;;;4435592;28;657410;-68
2021/04/20 00:55:45;;;;;;;21.63;10.93;;;3.80;99.90;;;;;;4445638;28;658807;-68
2021/04/20 00:58:32;;;;;;;21.67;10.83;;;3.80;99.90;;;;;;4446239;28;658150;-68
2021/04/20 01:01:19;;;;;;;20.40;10.80;;;3.90;99.90;;;;;;4400965;28;658705;-68
2021/04/20 01:04:09;;;;;;;21.00;11.13;;;4.00;99.90;;;;;;4406021;28;657661;-68
2021/04/20 01:06:57;;;;;;;23.57;11.50;;;4.00;99.90;;;;;;4384715;28;657797;-67
2021/04/20 01:09:44;;;;;;;23.10;11.83;;;4.10;99.90;;;;;;4378643;28;658383;-67
2021/04/20 01:12:31;;;;;;;25.30;11.50;;;4.10;99.90;;;;;;4411307;28;657584;-68
2021/04/20 01:15:19;;;;;;;21.40;11.60;;;4.20;99.90;;;;;;4392309;28;657933;-68
2021/04/20 01:18:10;;;;;;;24.80;12.10;;;4.20;99.90;;;;;;4411721;28;657483;-68
2021/04/20 01:20:59;;;;;;;21.37;11.30;;;4.30;99.90;;;;;;4369857;28;657909;-69
2021/04/20 01:23:53;;;;;;;22.37;11.60;;;4.40;99.90;;;;;;4415524;28;657392;-68
2021/04/20 01:26:42;;;;;;;22.87;12.53;;;4.40;99.90;;;;;;4389031;28;657658;-68
2021/04/20 01:29:29;;;;;;;24.47;11.03;;;4.50;99.90;;;;;;4393119;28;658706;-68
2021/04/20 01:32:17;;;;;;;18.20;9.97;;;4.50;99.90;;;;;;4412222;28;657964;-68
2021/04/20 01:35:05;;;;;;;20.90;11.47;;;4.60;99.90;;;;;;4394475;28;657495;-68
2021/04/20 01:37:55;;;;;;;24.57;12.67;;;4.60;99.90;;;;;;4396031;28;657334;-68
2021/04/20 01:40:43;;;;;;;22.07;12.03;;;4.60;99.90;;;;;;4395818;28;657556;-68
2021/04/20 01:43:31;;;;;;;21.03;11.97;;;4.70;99.90;;;;;;4414809;28;659124;-68
2021/04/20 01:46:18;;;;;;;19.83;11.93;;;4.70;99.90;;;;;;4395899;28;657590;-68
2021/04/20 01:49:05;;;;;;;23.07;11.73;;;4.70;99.90;;;;;;4418195;28;658605;-68
2021/04/20 01:51:53;;;;;;;28.40;13.10;;;4.80;99.90;;;;;;4395591;28;657507;-68
2021/04/20 01:54:40;;;;;;;26.23;12.57;;;4.70;99.90;;;;;;4418447;28;658792;-68
2021/04/20 01:57:29;;;;;;;20.87;10.77;;;4.70;99.90;;;;;;4395376;28;657587;-69
2021/04/20 02:00:18;;;;;;;22.33;11.27;;;4.80;99.90;;;;;;4419042;28;657542;-67
2021/04/20 02:03:06;;;;;;;20.27;11.50;;;4.80;99.90;;;;;;4408322;28;659161;-67
2021/04/20 02:05:53;;;;;;;22.77;11.60;;;4.80;99.90;;;;;;4412739;28;657472;-68
2021/04/20 02:08:40;;;;;;;24.03;12.20;;;4.70;99.90;;;;;;4431865;28;659089;-68
2021/04/20 02:11:27;;;;;;;20.40;11.83;;;4.80;99.90;;;;;;4414889;28;657489;-69
2021/04/20 02:14:15;;;;;;;24.90;12.73;;;4.70;99.90;;;;;;4431282;28;659284;-67
2021/04/20 02:17:03;;;;;;;28.30;14.93;;;4.70;99.90;;;;;;4421693;28;657666;-68
2021/04/20 02:19:51;;;;;;;24.70;12.73;;;4.70;99.90;;;;;;4431542;28;659361;-68
2021/04/20 02:22:38;;;;;;;28.67;14.00;;;4.70;99.90;;;;;;4413003;28;657725;-68
2021/04/20 02:25:28;;;;;;;33.83;17.00;;;4.70;99.90;;;;;;4434615;28;658476;-67
2021/04/20 02:28:16;;;;;;;32.80;15.97;;;4.70;99.90;;;;;;4408553;28;658803;-68
2021/04/20 02:31:04;;;;;;;29.90;15.43;;;4.70;99.90;;;;;;4411936;28;657632;-68
2021/04/20 02:33:54;;;;;;;33.50;17.20;;;4.70;99.90;;;;;;4430901;28;657806;-68
2021/04/20 02:36:43;;;;;;;32.97;17.77;;;4.70;99.90;;;;;;4412396;28;657111;-68
2021/04/20 02:39:30;;;;;;;36.50;18.50;;;4.70;99.90;;;;;;4412142;28;657802;-68
2021/04/20 02:42:17;;;;;;;34.80;18.00;;;4.70;99.90;;;;;;4412176;28;657591;-68
2021/04/20 02:45:06;;;;;;;34.30;17.17;;;4.70;99.90;;;;;;4434296;28;658680;-68
2021/04/20 02:47:53;;;;;;;50.13;22.97;;;4.70;99.90;;;;;;4412373;28;657704;-68
2021/04/20 02:50:41;;;;;;;38.83;20.27;;;4.70;99.90;;;;;;4433442;28;657283;-68
2021/04/20 02:53:28;;;;;;;36.80;18.33;;;4.70;99.90;;;;;;4411793;28;657659;-68
2021/04/20 02:56:16;;;;;;;39.33;19.00;;;4.70;99.90;;;;;;4430310;28;658682;-68
2021/04/20 02:59:05;;;;;;;37.50;17.80;;;4.70;99.90;;;;;;4402157;28;657396;-68
2021/04/20 03:01:53;;;;;;;34.13;17.17;;;4.60;99.90;;;;;;4411163;28;657469;-69
2021/04/20 03:04:40;;;;;;;34.00;17.13;;;4.60;99.90;;;;;;4446034;28;658823;-68
2021/04/20 03:07:28;;;;;;;34.80;17.87;;;4.60;99.90;;;;;;4436073;28;657594;-69
2021/04/20 03:10:17;;;;;;;37.70;17.10;;;4.60;99.90;;;;;;4446964;28;659118;-68
2021/04/20 03:13:05;;;;;;;50.13;17.23;;;4.60;99.90;;;;;;4427893;28;658601;-68
2021/04/20 03:15:52;;;;;;;33.70;17.13;;;4.60;99.90;;;;;;4430771;28;657684;-69
2021/04/20 03:18:40;;;;;;;36.50;17.30;;;4.60;99.90;;;;;;4447362;28;658372;-68
2021/04/20 03:21:27;;;;;;;38.37;17.30;;;4.50;99.90;;;;;;4445802;28;657934;-69
2021/04/20 03:24:46;;;;;;;35.27;17.33;;;4.60;99.90;;;;;;4446583;28;658902;-68
2021/04/20 03:27:33;;;;;;;37.50;15.00;;;4.60;99.90;;;;;;4396762;28;657659;-68
2021/04/20 03:30:23;;;;;;;32.33;17.67;;;4.60;99.90;;;;;;4452618;28;658209;-68
2021/04/20 03:33:14;;;;;;;37.28;18.65;;;4.60;99.90;;;;;;4424690;28;658745;-68
2021/04/20 03:36:05;;;;;;;45.10;21.30;;;4.60;99.90;;;;;;4423971;28;657382;-68
2021/04/20 03:38:54;;;;;;;43.13;22.80;;;4.60;99.90;;;;;;4407489;28;657744;-68
2021/04/20 03:41:45;;;;;;;37.83;18.73;;;4.60;99.90;;;;;;4446918;28;657606;-68
2021/04/20 03:44:39;;;;;;;40.33;19.30;;;4.50;99.90;;;;;;4419154;28;657903;-68
2021/04/20 03:47:32;;;;;;;71.40;26.08;;;4.60;99.90;;;;;;4423120;28;657396;-68
2021/04/20 03:50:22;;;;;;;70.37;20.53;;;4.50;99.90;;;;;;4401063;28;658628;-68
2021/04/20 03:53:15;;;;;;;62.28;24.40;;;4.50;99.90;;;;;;4427836;28;658206;-68
2021/04/20 03:56:03;;;;;;;120.63;26.80;;;4.60;99.90;;;;;;4408379;28;657354;-68
2021/04/20 03:58:51;;;;;;;39.17;20.67;;;4.50;99.90;;;;;;4445272;28;660287;-68
2021/04/20 04:01:40;;;;;;;53.73;20.17;;;4.50;99.90;;;;;;4425618;28;657527;-68
2021/04/20 04:04:28;;;;;;;70.90;23.40;;;4.50;99.90;;;;;;4423934;28;657330;-68
2021/04/20 04:07:15;;;;;;;82.27;25.20;;;4.50;99.90;;;;;;4428208;28;658862;-68
2021/04/20 04:10:03;;;;;;;151.30;18.60;;;4.50;99.90;;;;;;4409540;28;657671;-68
2021/04/20 04:12:52;;;;;;;43.60;18.70;;;4.60;99.90;;;;;;4431451;28;660067;-68
2021/04/20 04:15:40;;;;;;;70.37;22.50;;;4.60;99.90;;;;;;4405818;28;659232;-68
2021/04/20 04:18:28;;;;;;;128.50;26.20;;;4.60;99.90;;;;;;4409292;28;657947;-69
2021/04/20 04:21:19;;;;;;;144.30;27.53;;;4.70;99.90;;;;;;4427149;28;659890;-68
2021/04/20 04:24:07;;;;;;;110.67;28.27;;;4.70;99.90;;;;;;4404512;28;659204;-68
2021/04/20 04:26:54;;;;;;;107.17;21.93;;;4.80;99.90;;;;;;4383943;28;659542;-68
2021/04/20 04:29:42;;;;;;;165.43;29.73;;;4.80;99.90;;;;;;4430975;28;658551;-68
2021/04/20 04:32:30;;;;;;;319.30;32.67;;;4.90;99.90;;;;;;4407981;28;659100;-68
2021/04/20 04:35:18;;;;;;;381.65;30.13;;;5.00;99.90;;;;;;4408090;28;658274;-69
2021/04/20 04:38:05;;;;;;;277.00;26.73;;;5.10;99.90;;;;;;4427110;28;659606;-68
2021/04/20 04:40:52;;;;;;;335.27;29.35;;;5.10;99.90;;;;;;4407448;28;658530;-68
2021/04/20 04:43:40;;;;;;;227.97;22.83;;;5.20;99.90;;;;;;4426997;28;659935;-68
2021/04/20 04:46:28;;;;;;;186.87;24.37;;;5.20;99.90;;;;;;4407930;28;658307;-69
2021/04/20 04:49:16;;;;;;;201.97;26.20;;;5.20;99.90;;;;;;4426780;28;659057;-68
2021/04/20 04:52:03;;;;;;;193.90;27.23;;;5.20;99.90;;;;;;4407271;28;658532;-69
2021/04/20 04:54:50;;;;;;;100.97;26.77;;;5.10;99.90;;;;;;4427394;28;659965;-68
2021/04/20 04:57:38;;;;;;;259.10;30.30;;;5.20;99.90;;;;;;4408496;28;658237;-69
2021/04/20 05:00:25;;;;;;;279.13;37.43;;;5.30;99.90;;;;;;4426660;28;660116;-68
2021/04/20 05:03:13;;;;;;;107.67;29.70;;;5.50;99.90;;;;;;4407610;28;658932;-68
2021/04/20 05:06:01;;;;;;;272.10;30.53;;;5.60;99.90;;;;;;4419757;28;659680;-68
2021/04/20 05:08:48;;;;;;;226.20;36.67;;;5.60;99.90;;;;;;4411393;28;658795;-68
2021/04/20 05:11:37;;;;;;;270.10;34.33;;;5.70;99.90;;;;;;4429908;28;659436;-68
2021/04/20 05:14:24;;;;;;;373.57;32.17;;;5.70;99.90;;;;;;4410951;28;659284;-68
2021/04/20 05:17:12;;;;;;;242.47;32.80;;;5.80;99.90;;;;;;4427982;28;658885;-68
2021/04/20 05:19:59;;;;;;;346.40;50.50;;;5.90;99.90;;;;;;4410983;28;659100;-69
2021/04/20 05:22:48;;;;;;;259.73;37.60;;;6.10;99.90;;;;;;4430096;28;658794;-68
2021/04/20 05:25:38;;;;;;;355.30;39.77;;;6.10;99.90;;;;;;4407034;28;659324;-68
2021/04/20 05:28:25;;;;;;;356.90;36.47;;;6.00;99.90;;;;;;4406999;28;659199;-69
2021/04/20 05:31:12;;;;;;;342.87;34.57;;;6.00;99.90;;;;;;4410980;28;658698;-69
2021/04/20 05:34:00;;;;;;;282.20;33.73;;;6.10;99.90;;;;;;4433118;28;659676;-68
2021/04/20 05:36:48;;;;;;;214.80;35.83;;;6.20;99.90;;;;;;4410665;28;658637;-69
2021/04/20 05:39:36;;;;;;;108.27;30.60;;;6.20;99.90;;;;;;4433661;28;659763;-69
2021/04/20 05:42:23;;;;;;;146.80;30.33;;;6.30;99.90;;;;;;4410906;28;658923;-69
2021/04/20 05:45:12;;;;;;;195.27;31.80;;;6.40;99.90;;;;;;4429200;28;660086;-68
2021/04/20 05:48:00;;;;;;;234.53;32.73;;;6.50;99.90;;;;;;4409999;28;658979;-68
2021/04/20 05:50:50;;;;;;;172.03;31.30;;;6.60;99.90;;;;;;4419475;28;658852;-69
2021/04/20 05:53:38;;;;;;;93.50;29.40;;;6.70;99.90;;;;;;4410417;28;658639;-68
2021/04/20 05:56:26;;;;;;;82.90;29.67;;;6.90;99.90;;;;;;4432174;28;657707;-68
2021/04/20 05:59:16;;;;;;;129.87;38.43;;;7.00;99.90;;;;;;4411594;28;657839;-69
2021/04/20 06:02:04;;;;;;;123.97;34.10;;;7.10;99.90;;;;;;4411267;28;658684;-69
2021/04/20 06:05:00;;;;;;;72.73;31.23;;;7.30;99.90;;;;;;4412375;28;658345;-68
2021/04/20 06:07:49;;;;;;;62.93;28.70;;;7.40;99.90;;;;;;4390068;28;658067;-69
2021/04/20 06:10:37;;;;;;;62.92;29.55;;;7.60;99.90;;;;;;4431042;28;657123;-69
2021/04/20 06:13:26;;;;;;;54.17;27.43;;;7.80;99.90;;;;;;4408789;28;659028;-68
2021/04/20 06:16:16;;;;;;;52.40;26.00;;;7.90;99.90;;;;;;4405723;28;660040;-68
2021/04/20 06:19:04;;;;;;;56.83;28.23;;;8.10;99.90;;;;;;4414095;28;657823;-68
2021/04/20 06:21:51;;;;;;;64.73;29.87;;;8.20;99.90;;;;;;4448304;28;657934;-68
2021/04/20 06:24:38;;;;;;;52.80;27.70;;;8.30;99.90;;;;;;4422616;28;657882;-68
2021/04/20 06:27:26;;;;;;;59.40;28.70;;;8.50;99.90;;;;;;4444737;28;657879;-70
2021/04/20 06:30:16;;;;;;;48.97;26.20;;;8.60;99.90;;;;;;4429215;28;657678;-70
2021/04/20 06:33:04;;;;;;;56.30;27.90;;;8.80;99.90;;;;;;4422930;28;657339;-70
2021/04/20 06:35:51;;;;;;;65.23;30.27;;;9.00;99.90;;;;;;4441388;28;658132;-70
2021/04/20 06:38:44;;;;;;;58.63;29.70;;;9.10;99.90;;;;;;4429271;28;657893;-70
2021/04/20 06:41:31;;;;;;;52.90;28.53;;;9.20;99.90;;;;;;4417281;28;658108;-71
2021/04/20 06:44:22;;;;;;;56.40;28.50;;;9.30;99.90;;;;;;4423506;28;657739;-70
2021/04/20 06:47:14;;;;;;;39.77;21.63;;;9.40;99.90;;;;;;4407934;28;658771;-70
2021/04/20 06:50:03;;;;;;;36.40;18.73;;;9.50;99.90;;;;;;4417364;28;657900;-71
2021/04/20 06:52:51;;;;;;;33.10;18.73;;;9.70;99.90;;;;;;4418451;28;658852;-70
2021/04/20 06:55:44;;;;;;;33.40;17.90;;;9.80;99.90;;;;;;4428602;28;657521;-71
2021/04/20 06:58:34;;;;;;;36.83;18.43;;;10.10;99.90;;;;;;4420372;28;657310;-70
2021/04/20 07:01:26;;;;;;;30.17;17.43;;;10.30;99.90;;;;;;4426827;28;659055;-70
2021/04/20 07:04:17;;;;;;;30.93;16.97;;;10.50;99.90;;;;;;4399487;28;660320;-70
2021/04/20 07:07:10;;;;;;;35.13;17.83;;;10.70;99.90;;;;;;4422803;28;659252;-71
2021/04/20 07:10:01;;;;;;;31.07;17.67;;;11.00;99.90;;;;;;4408329;28;659034;-70
2021/04/20 07:12:49;;;;;;;34.03;18.10;;;11.00;99.90;;;;;;4427306;28;658977;-70
2021/04/20 07:15:38;;;;;;;30.77;17.00;;;11.10;99.90;;;;;;4446616;28;659040;-71
2021/04/20 07:18:45;;;;;;;30.53;17.50;;;11.20;99.90;;;;;;4421391;28;659744;-70
2021/04/20 07:21:49;;;;;;;26.50;15.17;;;11.10;99.90;;;;;;4438387;28;658923;-70
2021/04/20 07:24:43;;;;;;;28.70;16.27;;;11.30;99.90;;;;;;4422622;28;659030;-71
2021/04/20 07:27:35;;;;;;;44.87;23.93;;;11.50;99.90;;;;;;4423544;28;659562;-71
2021/04/20 07:30:24;;;;;;;46.37;23.50;;;11.50;99.90;;;;;;4400905;28;659031;-70
2021/04/20 07:33:19;;;;;;;42.77;23.77;;;11.50;99.90;;;;;;4442890;28;659145;-70
2021/04/20 07:36:12;;;;;;;48.37;26.70;;;11.60;99.90;;;;;;4423677;28;659449;-71
2021/04/20 07:39:07;;;;;;;52.37;27.20;;;11.60;99.90;;;;;;4393463;28;659280;-71
2021/04/20 07:41:59;;;;;;;52.93;26.63;;;11.40;99.90;;;;;;4404495;28;659337;-70
2021/04/20 07:49:00;;;;;;;44.60;24.60;;;11.20;99.90;;;;;;4397521;28;658604;-71
2021/04/20 07:51:53;;;;;;;46.47;24.93;;;11.50;99.90;;;;;;4419835;28;658895;-71
2021/04/20 07:54:52;;;;;;;51.93;27.97;;;11.80;99.90;;;;;;4418561;28;658797;-72
2021/04/20 07:57:41;;;;;;;54.23;28.40;;;11.90;99.90;;;;;;4401761;28;659015;-71
2021/04/20 08:00:32;;;;;;;45.20;24.00;;;12.20;99.90;;;;;;4428068;28;659045;-71
2021/04/20 08:03:23;;;;;;;48.65;26.33;;;12.30;99.90;;;;;;4427768;28;659159;-71
2021/04/20 08:06:12;;;;;;;44.17;25.47;;;12.60;99.90;;;;;;4420531;28;659502;-71
2021/04/20 08:09:36;;;;;;;45.97;24.37;;;13.00;99.90;;;;;;4417548;28;659458;-70
2021/04/20 08:12:27;;;;;;;48.10;23.40;;;12.80;99.90;;;;;;4415202;28;658619;-70
2021/04/20 08:15:20;;;;;;;37.43;20.80;;;12.80;99.90;;;;;;4423175;28;660245;-72
2021/04/20 08:18:11;;;;;;;35.63;19.83;;;12.80;99.90;;;;;;4416832;28;659002;-70
2021/04/20 08:20:59;;;;;;;40.27;21.00;;;13.20;99.90;;;;;;4425254;28;658363;-71
2021/04/20 08:23:49;;;;;;;49.40;23.43;;;13.20;99.90;;;;;;4445391;28;659437;-71
2021/04/20 08:26:38;;;;;;;41.67;22.20;;;13.30;99.90;;;;;;4399863;28;659172;-72
2021/04/20 08:29:29;;;;;;;43.37;22.93;;;13.50;99.90;;;;;;4416687;28;659857;-71
2021/04/20 08:32:19;;;;;;;44.57;23.13;;;13.00;99.90;;;;;;4408232;28;659164;-72
2021/04/20 08:35:13;;;;;;;39.60;22.17;;;12.50;99.90;;;;;;4405104;28;658663;-71
2021/04/20 08:38:07;;;;;;;36.93;19.90;;;12.10;99.90;;;;;;4401140;28;659919;-70
2021/04/20 08:40:59;;;;;;;43.07;22.23;;;11.70;99.90;;;;;;4391955;28;659272;-71
2021/04/20 08:43:54;;;;;;;36.73;21.53;;;11.50;99.90;;;;;;4418890;28;658475;-71
2021/04/20 08:46:53;;;;;;;40.43;23.13;;;11.60;99.90;;;;;;4425888;28;658464;-71
2021/04/20 08:49:43;;;;;;;43.50;23.30;;;11.60;99.90;;;;;;4419450;28;658682;-71
2021/04/20 08:52:44;;;;;;;48.30;24.73;;;11.60;99.90;;;;;;4429667;28;659969;-71
2021/04/20 08:55:36;;;;;;;41.50;22.83;;;11.90;99.90;;;;;;4423140;28;658389;-71
2021/04/20 08:58:53;;;;;;;43.43;23.63;;;12.20;99.90;;;;;;4398623;28;660125;-70
2021/04/20 09:01:48;;;;;;;47.77;25.07;;;12.60;99.90;;;;;;4347622;28;659159;-70
2021/04/20 09:04:58;;;;;;;53.90;28.57;;;13.20;99.90;;;;;;4374992;28;659359;-71
2021/04/20 09:08:09;;;;;;;54.53;26.90;;;12.80;99.90;;;;;;4366272;28;659231;-70
2021/04/20 09:11:01;;;;;;;51.47;27.70;;;12.50;99.90;;;;;;4371267;28;658557;-71
2021/04/20 09:13:55;;;;;;;46.08;25.35;;;12.20;99.90;;;;;;4346856;28;659533;-70
2021/04/20 09:16:45;;;;;;;47.63;26.03;;;12.00;99.90;;;;;;4347128;28;659081;-71
2021/04/20 09:19:34;;;;;;;49.37;25.70;;;12.00;99.90;;;;;;4386716;28;659226;-70
2021/04/20 09:25:58;;;;;;;53.55;29.05;;;11.70;99.90;;;;;;4194631;29;658826;-71
2021/04/20 09:28:49;;;;;;;57.73;29.97;;;11.80;99.90;;;;;;4221039;29;659249;-72
2021/04/20 09:31:40;;;;;;;60.40;31.57;;;11.90;99.90;;;;;;4213936;29;659434;-71
2021/04/20 09:34:29;;;;;;;57.67;30.33;;;11.90;99.90;;;;;;4211542;29;659055;-70
2021/04/20 09:37:18;;;;;;;61.10;31.70;;;11.70;99.90;;;;;;4242833;29;658885;-71
2021/04/20 09:40:06;;;;;;;61.73;31.13;;;11.70;99.90;;;;;;4210757;29;660070;-72
2021/04/20 09:42:55;;;;;;;61.40;31.67;;;11.70;99.90;;;;;;4230829;29;658758;-71
2021/04/20 09:45:45;;;;;;;80.23;34.70;;;11.70;99.90;;;;;;4239740;29;658483;-70
2021/04/20 09:48:42;;;;;;;62.97;31.87;;;11.70;99.90;;;;;;4227311;29;658911;-71
2021/04/20 09:51:32;;;;;;;56.30;30.90;;;11.80;99.90;;;;;;4198124;29;658810;-72
2021/04/20 09:54:25;;;;;;;55.53;30.53;;;12.20;99.90;;;;;;4237459;29;659791;-72
2021/04/20 09:57:12;;;;;;;67.80;34.27;;;12.50;99.90;;;;;;4223436;29;658751;-71
2021/04/20 10:00:07;;;;;;;67.80;34.03;;;12.70;99.90;;;;;;4234514;29;659687;-70
2021/04/20 10:03:08;;;;;;;71.27;35.37;;;12.60;99.90;;;;;;4215520;29;659023;-70
2021/04/20 10:06:15;;;;;;;56.07;30.00;;;12.70;99.90;;;;;;4287707;28;659183;-71
2021/04/20 10:09:23;;;;;;;62.03;31.63;;;12.70;99.90;;;;;;4431696;28;658708;-71
2021/04/20 10:12:24;;;;;;;70.37;32.97;;;12.70;99.90;;;;;;4424012;28;659473;-72
2021/04/20 10:15:15;;;;;;;61.30;33.80;;;12.70;99.90;;;;;;4422828;28;659075;-71
2021/04/20 10:18:05;;;;;;;65.53;33.03;;;12.60;99.90;;;;;;4399657;28;658534;-71
2021/04/20 10:20:59;;;;;;;65.77;32.90;;;12.50;99.90;;;;;;4429760;28;658758;-70
2021/04/20 10:23:51;;;;;;;57.77;29.60;;;12.60;99.90;;;;;;4416892;28;659376;-70
2021/04/20 10:26:42;;;;;;;53.50;29.00;;;13.30;99.90;;;;;;4397676;28;659683;-72
2021/04/20 10:29:31;;;;;;;41.80;20.10;;;13.10;99.90;;;;;;4420663;28;660087;-72
2021/04/20 10:32:20;;;;;;;11.57;5.03;;;13.30;99.90;;;;;;4429019;28;658246;-71
2021/04/20 10:35:13;;;;;;;8.87;5.50;;;13.40;99.90;;;;;;4420502;28;657463;-70
2021/04/20 10:38:01;;;;;;;9.57;5.33;;;13.50;99.90;;;;;;4426867;28;657349;-73
2021/04/20 10:40:49;;;;;;;7.37;3.73;;;13.60;99.90;;;;;;4429596;28;658320;-72
2021/04/20 10:43:37;;;;;;;11.20;5.10;;;13.70;99.90;;;;;;4447166;28;656633;-71
2021/04/20 10:46:25;;;;;;;12.43;5.40;;;13.90;99.90;;;;;;4425230;28;658377;-72
2021/04/20 10:49:15;;;;;;;7.07;4.40;;;14.00;99.90;;;;;;4442107;28;657467;-70
2021/04/20 10:52:09;;;;;;;7.53;4.60;;;14.20;99.90;;;;;;4430190;28;656038;-71
2021/04/20 10:54:56;;;;;;;10.77;5.38;;;14.50;99.90;;;;;;4423486;28;656965;-71
2021/04/20 10:57:46;;;;;;;10.87;6.27;;;14.80;99.90;;;;;;4428604;28;658107;-71
2021/04/20 11:00:34;;;;;;;20.90;7.07;;;15.00;99.90;;;;;;4429875;28;657741;-72
2021/04/20 11:03:22;;;;;;;9.90;4.70;;;15.00;99.90;;;;;;4433687;28;657416;-73
2021/04/20 11:06:46;;;;;;;7.13;4.20;;;15.10;99.90;;;;;;4428282;28;657291;-72
2021/04/20 11:09:34;;;;;;;7.30;4.43;;;15.00;99.80;;;;;;4403491;28;657866;-70
2021/04/20 11:12:21;;;;;;;9.37;4.93;;;15.10;98.00;;;;;;4449337;28;657990;-72
2021/04/20 11:15:08;;;;;;;6.83;4.10;;;15.10;99.10;;;;;;4422822;28;656441;-71
2021/04/20 11:18:01;;;;;;;12.50;5.90;;;15.30;97.00;;;;;;4446943;28;657457;-72
2021/04/20 11:20:51;;;;;;;6.63;4.10;;;15.30;97.00;;;;;;4427570;28;657598;-71
2021/04/20 11:23:39;;;;;;;5.97;4.17;;;15.70;97.50;;;;;;4420965;28;656747;-71
2021/04/20 11:26:29;;;;;;;7.97;4.43;;;15.60;92.70;;;;;;4448640;28;656951;-72
2021/04/20 11:29:21;;;;;;;10.20;4.70;;;15.60;93.80;;;;;;4423142;28;657020;-70
2021/04/20 11:32:08;;;;;;;16.70;8.63;;;15.60;91.80;;;;;;4428493;28;658405;-71
2021/04/20 11:34:56;;;;;;;8.63;4.30;;;15.80;92.50;;;;;;4444849;28;658352;-71
2021/04/20 11:37:44;;;;;;;4.57;3.57;;;16.30;93.30;;;;;;4430115;28;656303;-70
2021/04/20 11:40:34;;;;;;;8.97;4.37;;;16.70;90.80;;;;;;4442097;28;656985;-71
2021/04/20 11:43:23;;;;;;;7.13;4.43;;;17.10;90.00;;;;;;4425300;28;657230;-71
2021/04/20 11:46:10;;;;;;;10.67;5.00;;;17.20;87.60;;;;;;4424939;28;657475;-71
2021/04/20 11:49:07;;;;;;;6.33;4.27;;;17.50;88.50;;;;;;4428759;28;657404;-70
2021/04/20 11:51:55;;;;;;;11.50;6.87;;;18.20;87.80;;;;;;4397001;28;657351;-70
2021/04/20 11:54:42;;;;;;;17.73;8.77;;;18.60;82.30;;;;;;4428508;28;658122;-70
2021/04/20 11:57:29;;;;;;;11.85;5.28;;;19.10;82.90;;;;;;4451259;28;658525;-70
2021/04/20 12:00:17;;;;;;;5.93;4.00;;;19.40;78.30;;;;;;4445498;28;658104;-72
2021/04/20 12:03:22;;;;;;;4.43;3.70;;;18.90;67.50;;;;;;4423713;28;657485;-71
2021/04/20 12:06:09;;;;;;;13.47;8.10;;;18.30;69.50;;;;;;4403909;28;657393;-72
2021/04/20 12:08:57;;;;;;;9.77;5.90;;;18.10;72.20;;;;;;4440929;28;658287;-72
2021/04/20 12:11:46;;;;;;;6.50;4.47;;;17.80;72.10;;;;;;4419606;28;657742;-71
2021/04/20 12:14:36;;;;;;;12.90;5.33;;;17.70;72.70;;;;;;4420736;28;656622;-71
2021/04/20 12:17:32;;;;;;;9.17;4.77;;;17.50;72.00;;;;;;4427164;28;657540;-71
2021/04/20 12:20:20;;;;;;;29.17;13.47;;;17.10;70.40;;;;;;4395012;28;656807;-73
2021/04/20 12:23:07;;;;;;;31.77;16.90;;;16.80;79.10;;;;;;4429255;28;659034;-71
2021/04/20 12:25:55;;;;;;;34.33;18.43;;;16.60;84.90;;;;;;4442164;28;658850;-72
2021/04/20 12:28:46;;;;;;;35.97;17.47;;;16.50;86.50;;;;;;4426160;28;659002;-72
2021/04/20 12:31:35;;;;;;;35.73;18.07;;;16.30;87.10;;;;;;4426608;28;658829;-73
2021/04/20 12:34:27;;;;;;;31.33;17.10;;;16.10;88.60;;;;;;4431532;28;658840;-71
2021/04/20 12:37:14;;;;;;;33.17;17.17;;;16.10;90.00;;;;;;4420165;28;658563;-73
2021/04/20 12:40:02;;;;;;;30.60;16.63;;;15.80;89.50;;;;;;4445352;28;658382;-73
2021/04/20 12:42:55;;;;;;;31.37;16.00;;;15.80;90.50;;;;;;4419459;28;659742;-74
2021/04/20 12:45:42;;;;;;;31.53;16.87;;;15.80;89.70;;;;;;4443868;28;658465;-71
2021/04/20 12:48:29;;;;;;;26.70;14.57;;;15.50;90.60;;;;;;4447412;28;659550;-73
2021/04/20 12:51:18;;;;;;;26.27;13.37;;;15.40;90.80;;;;;;4441906;28;658704;-73
2021/04/20 12:54:06;;;;;;;26.30;13.97;;;15.30;89.00;;;;;;4421604;28;659527;-72
2021/04/20 12:56:54;;;;;;;25.40;14.02;;;15.50;90.50;;;;;;4423028;28;658576;-72
2021/04/20 12:59:44;;;;;;;23.37;11.53;;;15.80;91.40;;;;;;4445348;28;661069;-72
2021/04/20 13:02:31;;;;;;;14.90;6.60;;;15.90;91.40;;;;;;4413083;28;659891;-73
2021/04/20 13:05:20;;;;;;;25.30;7.97;;;16.00;89.60;;;;;;4426967;28;657542;-72
2021/04/20 13:08:09;;;;;;;11.20;4.77;;;15.90;82.00;;;;;;4436035;28;657872;-71
2021/04/20 13:10:58;;;;;;;9.63;4.63;;;15.90;83.40;;;;;;4441150;28;658327;-72
2021/04/20 13:13:45;;;;;;;9.57;4.20;;;16.20;84.30;;;;;;4412835;28;658267;-71
2021/04/20 13:16:33;;;;;;;10.10;4.00;;;16.50;81.20;;;;;;4446779;28;656461;-71
2021/04/20 13:19:23;;;;;;;6.37;2.80;;;17.00;79.20;;;;;;4446612;28;658308;-71
2021/04/20 13:22:10;;;;;;;6.50;3.40;;;17.60;75.20;;;;;;4424058;28;657744;-71
2021/04/20 13:24:58;;;;;;;4.63;3.03;;;18.00;70.70;;;;;;4427830;28;656533;-72
2021/04/20 13:27:46;;;;;;;6.60;3.23;;;18.00;68.50;;;;;;4448466;28;657775;-71
2021/04/20 13:30:33;;;;;;;6.07;3.30;;;17.80;70.90;;;;;;4431978;28;657049;-71
2021/04/20 13:33:23;;;;;;;5.87;3.33;;;18.10;66.60;;;;;;4452271;28;656536;-72
2021/04/20 13:36:10;;;;;;;5.93;3.50;;;18.40;67.70;;;;;;4418519;28;657462;-71
2021/04/20 13:38:58;;;;;;;5.17;3.23;;;18.60;65.10;;;;;;4439736;28;656605;-70
2021/04/20 13:41:47;;;;;;;6.63;3.20;;;18.20;67.00;;;;;;4454248;28;657036;-72
2021/04/20 13:44:35;;;;;;;12.33;5.90;;;18.30;66.80;;;;;;4427359;28;657496;-73
2021/04/20 13:47:22;;;;;;;9.80;5.57;;;18.30;69.00;;;;;;4429586;28;657420;-71
2021/04/20 13:50:11;;;;;;;13.37;6.23;;;18.10;71.40;;;;;;4450283;28;657515;-74
2021/04/20 13:53:00;;;;;;;8.77;5.27;;;18.00;72.50;;;;;;4422775;28;657939;-74
2021/04/20 13:55:47;;;;;;;7.30;4.27;;;17.80;72.30;;;;;;4422297;28;656558;-71
2021/04/20 13:58:38;;;;;;;8.07;5.40;;;17.50;72.10;;;;;;4445043;28;656081;-74
2021/04/20 14:01:27;;;;;;;9.17;4.17;;;17.20;73.20;;;;;;4424592;28;657545;-74
2021/04/20 14:04:21;;;;;;;6.53;3.90;;;17.00;73.40;;;;;;4425958;28;657048;-73
2021/04/20 14:07:11;;;;;;;6.07;4.00;;;16.90;73.40;;;;;;4405692;28;657369;-72
2021/04/20 14:09:59;;;;;;;10.37;3.83;;;16.90;72.80;;;;;;4424731;28;657006;-74
2021/04/20 14:12:47;;;;;;;4.73;3.40;;;17.10;73.40;;;;;;4448485;28;658564;-72
2021/04/20 14:15:35;;;;;;;4.40;3.37;;;17.60;71.10;;;;;;4423124;28;657462;-70
2021/04/20 14:18:23;;;;;;;6.83;3.17;;;18.30;67.50;;;;;;4429447;28;656653;-71
2021/04/20 14:21:24;;;;;;;3.77;2.80;;;18.70;66.60;;;;;;4448746;28;658389;-72
2021/04/20 14:24:15;;;;;;;4.70;2.70;;;19.20;63.30;;;;;;4419459;28;656571;-70
2021/04/20 14:27:04;;;;;;;4.40;2.50;;;19.30;62.70;;;;;;4413523;28;657215;-73
2021/04/20 14:30:04;;;;;;;4.00;2.77;;;19.00;62.30;;;;;;4444994;28;656767;-72